Time;durP1;ratioP1;P1;durP2;ratioP2;P2;SDS_P1;SDS_P2;PMS_P1;PMS_P2;Temp;Humidity;BMP_temperature;BMP_pressure;BME280_temperature;BME280_humidity;BME280_pressure;Samples;Min_cycle;Max_cycle;Signal;HPM_P1;HPM_P2
2021/11/12 00:02:40;;;;;;;63.13;27.50;;;;;;;6.51;100.00;101366.56;5271848;55;1143258;-84
2021/11/12 00:13:06;;;;;;;56.17;24.23;;;;;;;6.54;100.00;101365.12;5203456;56;1143104;-83
2021/11/12 00:18:12;;;;;;;60.05;23.55;;;;;;;6.55;100.00;101368.98;5271234;56;1143211;-84
2021/11/12 00:23:19;;;;;;;62.83;27.13;;;;;;;6.55;100.00;101362.42;5136903;56;1143171;-84
2021/11/12 00:28:29;;;;;;;55.23;26.00;;;;;;;6.56;100.00;101367.21;5201872;56;1143033;-84
2021/11/12 00:38:51;;;;;;;52.43;23.47;;;;;;;6.60;100.00;101363.49;5137186;56;1143277;-83
2021/11/12 00:43:55;;;;;;;63.15;27.10;;;;;;;6.60;100.00;101370.06;5205497;56;1143086;-84
2021/11/12 00:49:05;;;;;;;54.53;24.80;;;;;;;6.61;100.00;101368.68;5276078;56;1143114;-84
2021/11/12 00:54:09;;;;;;;46.30;20.37;;;;;;;6.63;100.00;101371.23;5141507;57;1143078;-84
2021/11/12 00:59:15;;;;;;;58.87;24.73;;;;;;;6.64;100.00;101369.85;5207969;56;1143103;-85
2021/11/12 01:04:23;;;;;;;63.23;28.57;;;;;;;6.65;100.00;101367.62;5276191;56;1143127;-84
2021/11/12 01:09:29;;;;;;;76.50;32.23;;;;;;;6.66;100.00;101368.01;5141529;57;1143158;-84
2021/11/12 01:14:35;;;;;;;66.97;30.27;;;;;;;6.69;100.00;101373.59;5207986;56;1143089;-83
2021/11/12 01:19:41;;;;;;;52.87;24.80;;;;;;;6.73;100.00;101380.38;5276246;55;1143341;-84
2021/11/12 01:24:47;;;;;;;57.43;21.90;;;;;;;6.74;100.00;101367.62;5141924;55;1143106;-84
2021/11/12 01:29:54;;;;;;;62.80;27.33;;;;;;;6.75;100.00;101370.64;5208679;56;1143632;-83
2021/11/12 01:35:01;;;;;;;56.17;23.00;;;;;;;6.76;100.00;101372.34;5276506;55;1143075;-84
2021/11/12 01:40:10;;;;;;;60.70;25.90;;;;;;;6.74;100.00;101365.45;5276477;55;1143316;-84
2021/11/12 01:45:15;;;;;;;59.17;26.77;;;;;;;6.72;100.00;101362.93;5345834;54;1143475;-84
2021/11/12 01:50:25;;;;;;;55.40;27.27;;;;;;;6.73;100.00;101365.06;5367542;54;1142976;-84
2021/11/12 01:55:44;;;;;;;51.03;21.23;;;;;;;6.77;100.00;101374.52;5367335;54;1143085;-84
2021/11/12 02:00:36;;;;;;;58.03;23.47;;;;;;;6.76;100.00;101367.09;5365641;55;1143371;-84
2021/11/12 02:05:42;;;;;;;47.83;18.87;;;;;;;6.77;100.00;101366.63;5367578;54;1143190;-84
2021/11/12 02:10:48;;;;;;;50.40;24.37;;;;;;;6.79;100.00;101363.47;5367480;54;1141329;-85
2021/11/12 02:15:54;;;;;;;46.40;21.57;;;;;;;6.79;100.00;101371.36;5367270;55;1141120;-83
2021/11/12 02:21:08;;;;;;;48.33;20.13;;;;;;;6.81;100.00;101369.51;5367366;54;1141050;-84
2021/11/12 02:26:12;;;;;;;50.53;22.37;;;;;;;6.81;100.00;101367.73;5366737;54;1141083;-84
2021/11/12 02:31:16;;;;;;;53.10;23.07;;;;;;;6.82;100.00;101372.06;5315808;55;1141152;-84
2021/11/12 02:36:22;;;;;;;59.67;26.52;;;;;;;6.82;100.00;101376.01;5367012;54;1141028;-83
2021/11/12 02:41:28;;;;;;;58.47;27.50;;;;;;;6.85;100.00;101367.12;5367042;54;1140400;-86
2021/11/12 02:46:35;;;;;;;50.87;21.07;;;;;;;6.85;100.00;101367.12;5271838;56;1140985;-86
2021/11/12 02:51:41;;;;;;;53.83;21.23;;;;;;;6.87;100.00;101367.91;5271602;56;1141005;-86
2021/11/12 02:56:50;;;;;;;56.03;26.10;;;;;;;6.90;100.00;101376.48;5271946;56;1141094;-85
2021/11/12 03:02:01;;;;;;;60.23;27.60;;;;;;;6.94;100.00;101374.55;5271801;56;1141008;-85
2021/11/12 03:07:04;;;;;;;54.00;22.60;;;;;;;6.97;100.00;101367.84;5271290;56;1141184;-86
2021/11/12 03:12:12;;;;;;;55.23;24.20;;;;;;;6.99;100.00;101367.30;5268833;56;1141107;-86
2021/11/12 03:17:19;;;;;;;60.10;28.25;;;;;;;7.00;100.00;101368.55;5266581;55;1140974;-86
2021/11/12 03:22:31;;;;;;;68.03;27.43;;;;;;;6.98;100.00;101368.23;5266738;56;1141012;-84
2021/11/12 04:21:31;;;;;;;82.80;34.43;;;;;;;7.13;100.00;101386.34;5080222;57;1143340;-84
2021/11/12 05:57:21;;;;;;;100.43;33.60;;;;;;;7.02;100.00;101409.24;5053943;58;1138910;-85
2021/11/12 06:02:27;;;;;;;80.83;32.47;;;;;;;7.00;100.00;101408.00;5053953;58;1143281;-85
2021/11/12 06:07:33;;;;;;;78.53;30.20;;;;;;;6.99;100.00;101407.61;5053763;58;1140963;-85
2021/11/12 06:12:38;;;;;;;53.60;26.17;;;;;;;6.98;100.00;101401.95;5056734;56;1141260;-85
2021/11/12 06:17:45;;;;;;;61.57;29.20;;;;;;;7.01;100.00;101419.37;5058760;58;1141011;-84
2021/11/12 06:22:52;;;;;;;104.07;33.33;;;;;;;6.99;100.00;101427.33;5093099;57;1141025;-85
2021/11/12 06:27:58;;;;;;;79.40;33.07;;;;;;;6.97;100.00;101437.06;5063186;57;1143197;-84
2021/11/12 06:33:05;;;;;;;78.20;31.63;;;;;;;6.98;100.00;101446.66;5058524;58;1140999;-84
2021/11/12 06:38:12;;;;;;;145.13;36.20;;;;;;;7.01;100.00;101437.78;5058522;58;1140973;-85
2021/11/12 06:43:26;;;;;;;139.63;35.57;;;;;;;7.03;100.00;101441.16;5087663;57;1141186;-84
2021/11/12 06:53:56;;;;;;;84.60;31.33;;;;;;;7.16;100.00;101452.82;5136143;57;1145207;-85
2021/11/12 06:59:02;;;;;;;123.77;36.37;;;;;;;7.15;100.00;101459.47;5132630;56;1143037;-85
2021/11/12 07:04:08;;;;;;;132.30;34.37;;;;;;;7.12;100.00;101460.92;5133579;57;1145077;-84
2021/11/12 07:09:14;;;;;;;117.08;36.70;;;;;;;7.12;100.00;101464.41;5137423;57;1145217;-84
2021/11/12 07:14:20;;;;;;;71.60;30.57;;;;;;;7.15;100.00;101455.52;5137325;57;1145223;-85
2021/11/12 07:19:26;;;;;;;82.63;30.47;;;;;;;7.17;100.00;101458.94;5137443;57;1143059;-84
2021/11/12 07:24:31;;;;;;;86.47;35.63;;;;;;;7.12;100.00;101451.26;5137338;56;1143118;-85
2021/11/12 07:29:41;;;;;;;105.17;33.10;;;;;;;7.10;100.00;101463.63;5126530;57;1143038;-84
2021/11/12 07:34:48;;;;;;;113.53;38.30;;;;;;;7.06;100.00;101458.97;5096263;57;1145183;-84
2021/11/12 07:39:53;;;;;;;79.53;34.20;;;;;;;7.05;100.00;101459.89;5130092;57;1145542;-83
2021/11/12 07:50:13;;;;;;;92.73;36.03;;;;;;;7.10;100.00;101443.90;5108094;55;1143326;-82
2021/11/12 07:55:19;;;;;;;86.67;32.73;;;;;;;7.11;100.00;101441.66;5141571;55;1143180;-84
2021/11/12 08:00:25;;;;;;;78.43;31.80;;;;;;;7.13;100.00;101446.39;5141539;57;1143112;-82
2021/11/12 08:05:37;;;;;;;69.13;31.17;;;;;;;7.14;100.00;101444.15;5141778;55;1143208;-83
2021/11/12 08:10:52;;;;;;;71.20;32.53;;;;;;;7.15;100.00;101446.31;5141597;55;1143150;-83
2021/11/12 08:16:51;;;;;;;67.63;31.47;;;;;;;7.19;100.00;101444.75;5141591;55;1143185;-83
2021/11/12 08:21:15;;;;;;;81.07;32.87;;;;;;;7.24;100.00;101445.39;5123717;56;1143098;-82
2021/11/12 08:52:01;;;;;;;65.63;29.47;;;;;;;7.24;100.00;101455.06;5091484;57;1143010;-86
2021/11/12 08:57:14;;;;;;;170.17;57.33;;;;;;;7.28;100.00;101457.48;5119758;57;1143105;-84
2021/11/12 09:02:25;;;;;;;153.07;50.60;;;;;;;7.27;100.00;101454.92;5142676;56;1143072;-84
2021/11/12 09:07:31;;;;;;;120.90;39.40;;;;;;;7.30;100.00;101457.41;5142395;57;1143110;-85
2021/11/12 09:12:37;;;;;;;192.10;59.58;;;;;;;7.30;100.00;101449.05;5142032;57;1143075;-85
2021/11/12 09:17:46;;;;;;;76.40;30.80;;;;;;;7.31;100.00;101445.50;5142216;57;1143173;-85
2021/11/12 09:22:52;;;;;;;75.50;29.40;;;;;;;7.31;100.00;101450.76;5142153;55;1141028;-85
2021/11/12 09:27:57;;;;;;;141.47;44.23;;;;;;;7.36;100.00;101449.19;5104723;57;1141062;-84
2021/11/12 09:33:05;;;;;;;84.53;34.63;;;;;;;7.38;100.00;101448.66;5058896;57;1143136;-85
2021/11/12 09:38:12;;;;;;;79.33;31.97;;;;;;;7.38;100.00;101436.35;5059081;57;1141129;-85
2021/11/12 09:43:18;;;;;;;61.77;26.83;;;;;;;7.44;100.00;101439.16;5087983;57;1140966;-85
2021/11/12 09:48:24;;;;;;;254.07;80.43;;;;;;;7.47;100.00;101436.84;5137687;56;1141286;-85
2021/11/12 09:53:31;;;;;;;344.48;93.82;;;;;;;7.51;100.00;101431.32;5127344;57;1143096;-87
2021/11/12 09:58:42;;;;;;;149.80;49.70;;;;;;;7.61;100.00;101431.73;5099889;57;1143441;-87
2021/11/12 10:03:49;;;;;;;334.57;187.22;;;;;;;7.60;100.00;101420.34;5098119;57;1143114;-87
2021/11/12 10:08:57;;;;;;;151.00;69.90;;;;;;;7.62;100.00;101426.86;5100445;55;1143098;-85
2021/11/12 10:14:10;;;;;;;77.87;32.70;;;;;;;7.65;100.00;101416.14;5080992;57;1141197;-87
2021/11/12 10:19:18;;;;;;;67.47;29.50;;;;;;;7.72;100.00;101415.77;5058825;57;1143144;-87
2021/11/12 10:24:32;;;;;;;73.52;30.02;;;;;;;7.75;100.00;101409.03;5065390;56;1142451;-88
2021/11/12 10:29:45;;;;;;;367.35;112.70;;;;;;;7.80;100.00;101411.87;5113483;57;1143244;-85
2021/11/12 10:34:56;;;;;;;176.17;68.87;;;;;;;7.89;100.00;101406.14;5063700;56;1147257;-87
2021/11/12 10:40:10;;;;;;;69.93;31.43;;;;;;;7.91;100.00;101380.11;5058601;58;1145149;-85
2021/11/12 10:45:23;;;;;;;70.63;30.40;;;;;;;8.04;100.00;101379.84;5119102;57;1143145;-85
2021/11/12 10:50:33;;;;;;;48.83;24.00;;;;;;;8.18;100.00;101376.47;5138480;56;1142527;-85
2021/11/12 10:55:39;;;;;;;58.77;27.57;;;;;;;8.24;100.00;101367.39;5137465;57;1143132;-86
2021/11/12 11:00:50;;;;;;;57.03;26.10;;;;;;;8.26;100.00;101362.86;5137854;56;1143079;-85
2021/11/12 11:05:59;;;;;;;53.63;23.37;;;;;;;8.29;100.00;101367.97;5137848;57;1143170;-87
2021/11/12 11:11:11;;;;;;;40.43;18.50;;;;;;;8.29;100.00;101370.14;5137655;57;1143117;-84
2021/11/12 11:16:20;;;;;;;53.83;24.13;;;;;;;8.33;100.00;101365.13;5137773;57;1143172;-87
2021/11/12 11:21:27;;;;;;;49.83;24.70;;;;;;;8.35;100.00;101361.09;5137807;56;1143226;-88
2021/11/12 11:26:46;;;;;;;62.13;29.53;;;;;;;8.42;100.00;101350.58;5137595;57;1143251;-85
2021/11/12 11:31:54;;;;;;;55.52;24.82;;;;;;;8.44;100.00;101338.16;5137795;56;1143139;-85
2021/11/12 11:37:05;;;;;;;52.40;23.83;;;;;;;8.48;100.00;101331.80;5137849;56;1143171;-86
2021/11/12 11:42:11;;;;;;;37.93;18.10;;;;;;;8.51;100.00;101327.67;5138376;57;1143121;-87
2021/11/12 11:47:22;;;;;;;41.00;20.43;;;;;;;8.58;100.00;101320.25;5133544;55;1143200;-86
2021/11/12 11:52:30;;;;;;;45.13;22.27;;;;;;;8.59;100.00;101304.34;5142079;57;1143097;-84
2021/11/12 11:57:36;;;;;;;46.73;21.07;;;;;;;8.62;100.00;101304.64;5142135;55;1143103;-85
2021/11/12 12:02:42;;;;;;;37.83;19.67;;;;;;;8.61;100.00;101305.58;5141777;57;1143086;-89
2021/11/12 12:07:52;;;;;;;40.33;21.27;;;;;;;8.63;100.00;101297.97;5145996;56;1141013;-87
2021/11/12 12:13:05;;;;;;;34.40;18.63;;;;;;;8.67;100.00;101287.63;5142079;57;1141223;-84
2021/11/12 12:18:16;;;;;;;;;;;;;;;8.74;100.00;101280.20;5145877;55;1141064;-85
2021/11/12 13:19:59;;;;;;;106.33;44.97;;;;;;;8.81;100.00;101257.82;5142218;57;1143145;-88
2021/11/12 13:28:41;;;;;;;75.23;36.33;;;;;;;8.85;100.00;101260.67;5061799;57;1141311;-85
2021/11/12 13:33:59;;;;;;;64.20;31.87;;;;;;;8.84;100.00;101255.02;5058523;58;1141120;-83
2021/11/12 13:39:17;;;;;;;63.10;29.30;;;;;;;8.86;100.00;101262.34;5059731;56;1141121;-86
2021/11/12 13:44:23;;;;;;;70.70;35.13;;;;;;;8.86;100.00;101262.34;5081237;56;1141005;-83
2021/11/12 13:49:45;;;;;;;77.27;39.93;;;;;;;8.87;100.00;101264.04;5088345;57;1141258;-85
2021/11/12 13:55:07;;;;;;;76.10;36.97;;;;;;;8.83;100.00;101259.91;5127178;56;1143570;-83
2021/11/12 14:00:17;;;;;;;66.77;31.37;;;;;;;8.85;100.00;101255.86;5058796;56;1143118;-85
2021/11/12 14:05:24;;;;;;;63.83;31.10;;;;;;;8.84;100.00;101263.39;5067136;56;1143366;-85
2021/11/12 14:10:44;;;;;;;81.53;36.43;;;;;;;8.80;100.00;101256.97;5101266;57;1143129;-86
2021/11/12 14:16:11;;;;;;;69.97;32.57;;;;;;;8.78;100.00;101273.81;5058287;57;1143102;-88
2021/11/12 14:21:31;;;;;;;68.37;33.57;;;;;;;8.77;100.00;101269.48;5058914;57;1143269;-84
2021/11/12 14:26:30;;;;;;;67.03;32.57;;;;;;;8.77;100.00;101263.73;5054240;57;1143353;-86
2021/11/12 14:32:03;;;;;;;64.33;33.07;;;;;;;8.76;100.00;101254.13;5059645;57;1143120;-85
2021/11/12 14:37:29;;;;;;;62.33;31.93;;;;;;;8.74;100.00;101249.88;5058624;57;1142395;-86
2021/11/12 14:47:42;;;;;;;71.60;35.20;;;;;;;8.75;100.00;101247.15;5137546;57;1143109;-88
2021/11/12 14:52:49;;;;;;;70.23;34.97;;;;;;;8.76;100.00;101238.77;5139244;56;1143050;-86
2021/11/12 14:57:57;;;;;;;61.40;31.83;;;;;;;8.73;100.00;101242.90;5138696;55;1143280;-85
2021/11/12 15:03:02;;;;;;;57.80;29.90;;;;;;;8.67;100.00;101232.73;5122004;56;1143047;-84
2021/11/12 15:08:29;;;;;;;53.30;29.77;;;;;;;8.64;100.00;101229.80;5066667;57;1143125;-86
2021/11/12 15:13:20;;;;;;;62.70;32.00;;;;;;;8.66;100.00;101241.58;5013010;58;1143100;-86
2021/11/12 15:18:26;;;;;;;78.83;41.43;;;;;;;8.67;100.00;101237.53;5083251;56;1143148;-81
2021/11/12 15:34:03;;;;;;;64.53;29.33;;;;;;;8.61;100.00;101234.39;5070030;56;1141095;-86
2021/11/12 15:39:10;;;;;;;74.85;35.78;;;;;;;8.62;100.00;101221.12;5062508;56;1141084;-83
2021/11/12 15:44:21;;;;;;;87.67;41.77;;;;;;;8.63;100.00;101224.14;5077278;56;1141051;-84
2021/11/12 15:49:24;;;;;;;80.47;43.27;;;;;;;8.62;100.00;101228.17;5076804;57;1141143;-83
2021/11/12 16:15:19;;;;;;;86.37;40.77;;;;;;;8.68;100.00;101214.18;5058634;57;1141043;-83
2021/11/12 16:20:47;;;;;;;82.95;41.88;;;;;;;8.69;100.00;101221.16;5101765;57;1143112;-82
2021/11/12 16:25:44;;;;;;;74.20;38.20;;;;;;;8.61;100.00;101200.96;5219796;56;1143073;-84
2021/11/12 16:31:01;;;;;;;74.97;38.53;;;;;;;8.67;100.00;101218.22;5118194;57;1143267;-85
2021/11/12 16:36:05;;;;;;;88.30;45.63;;;;;;;8.64;100.00;101209.16;5140922;57;1143318;-87
2021/11/12 16:41:15;;;;;;;612.60;365.90;;;;;;;8.62;100.00;101208.41;5075105;56;1143065;-86
2021/11/12 16:46:39;;;;;;;501.27;313.63;;;;;;;8.57;100.00;101203.39;5106681;57;1147211;-84
2021/11/12 16:57:01;;;;;;;113.32;57.80;;;;;;;8.47;100.00;101215.41;5084871;57;1145302;-84
2021/11/12 17:50:56;;;;;;;76.03;37.20;;;;;;;8.02;100.00;101201.25;5067865;57;1141364;-84
2021/11/12 18:05:51;;;;;;;69.17;34.17;;;;;;;7.95;100.00;101189.34;5149194;56;21185;-84
2021/11/12 18:21:59;;;;;;;83.47;36.50;;;;;;;7.85;100.00;101175.01;5088712;57;1143240;-82
2021/11/12 21:47:11;;;;;;;48.58;23.27;;;;;;;6.72;100.00;101036.13;5006384;59;1143219;-80
2021/11/12 21:52:17;;;;;;;47.67;22.00;;;;;;;6.68;100.00;101035.42;5006292;59;1143239;-77
2021/11/12 21:57:23;;;;;;;59.07;23.50;;;;;;;6.63;100.00;101038.75;5006507;59;1143305;-80
2021/11/12 22:02:29;;;;;;;47.83;20.33;;;;;;;6.59;100.00;101045.09;5057871;56;1143185;-77
2021/11/12 22:07:36;;;;;;;50.20;22.97;;;;;;;6.58;100.00;101034.20;5043497;57;1143196;-78
2021/11/12 22:12:42;;;;;;;54.57;22.20;;;;;;;6.59;100.00;101037.20;5030920;57;1143404;-80
2021/11/12 22:17:48;;;;;;;59.67;27.67;;;;;;;6.62;100.00;101036.59;5131612;56;1143100;-82
2021/11/12 22:22:55;;;;;;;68.20;28.20;;;;;;;6.64;100.00;101035.20;5093580;56;1143104;-81
2021/11/12 22:28:01;;;;;;;72.87;29.97;;;;;;;6.67;100.00;101017.95;5091480;57;1143129;-79
2021/11/12 22:33:08;;;;;;;66.87;27.77;;;;;;;6.64;100.00;101005.83;5116936;56;1143145;-78
2021/11/12 22:38:15;;;;;;;72.20;28.52;;;;;;;6.64;100.00;100998.41;5094737;56;1143089;-81
2021/11/12 22:43:25;;;;;;;59.67;23.67;;;;;;;6.63;100.00;101004.13;5116431;57;1143401;-82
2021/11/12 22:48:31;;;;;;;76.20;28.50;;;;;;;6.63;100.00;101000.19;5094709;57;1143074;-78
2021/11/12 22:53:37;;;;;;;69.83;28.57;;;;;;;6.59;100.00;100997.33;5091288;57;1143107;-85
2021/11/12 22:58:44;;;;;;;77.37;30.37;;;;;;;6.55;100.00;100994.97;5100220;57;1143039;-76
2021/11/12 23:03:50;;;;;;;70.10;29.03;;;;;;;6.53;100.00;100992.41;5087995;57;1143090;-82
2021/11/12 23:08:56;;;;;;;77.90;31.27;;;;;;;6.48;100.00;100982.61;5088168;57;1143178;-82
2021/11/12 23:14:02;;;;;;;74.03;30.33;;;;;;;6.50;100.00;100983.84;5141632;57;1143378;-85
2021/11/12 23:19:08;;;;;;;83.60;33.30;;;;;;;6.51;100.00;100979.82;5141618;55;1143139;-80
2021/11/12 23:24:14;;;;;;;80.23;33.03;;;;;;;6.55;100.00;100966.06;5141734;57;1143148;-83
2021/11/12 23:29:19;;;;;;;76.57;31.97;;;;;;;6.53;100.00;100955.63;5141722;57;1143123;-82
2021/11/12 23:34:25;;;;;;;80.30;34.10;;;;;;;6.47;100.00;100937.55;5141713;57;1143169;-85
2021/11/12 23:39:31;;;;;;;78.07;33.47;;;;;;;6.47;100.00;100937.55;5142014;57;1143109;-83
2021/11/12 23:44:37;;;;;;;77.87;34.63;;;;;;;6.50;100.00;100933.92;5138740;57;1143106;-78
2021/11/12 23:49:43;;;;;;;72.20;32.33;;;;;;;6.46;100.00;100935.00;5137376;57;1143243;-77
2021/11/12 23:54:49;;;;;;;69.27;32.50;;;;;;;6.38;100.00;100939.38;5137389;56;1143189;-82
2021/11/12 23:59:55;;;;;;;65.77;30.23;;;;;;;6.29;100.00;100946.41;5137114;56;1143178;-82
